Time;durP1;ratioP1;P1;durP2;ratioP2;P2;SDS_P1;SDS_P2;PMS_P1;PMS_P2;Temp;Humidity;BMP_temperature;BMP_pressure;BME280_temperature;BME280_humidity;BME280_pressure;Samples;Min_cycle;Max_cycle;Signal;HPM_P1;HPM_P2
2022/10/05 00:02:18;;;;;;;2.75;2.38;;;;;;;7.80;77.73;98809.72;6232232;22;20515;-73
2022/10/05 00:04:43;;;;;;;3.63;2.92;;;;;;;7.72;78.38;98806.81;6229509;22;20015;-76
2022/10/05 00:07:14;;;;;;;3.70;3.17;;;;;;;7.77;78.39;98809.97;6232350;22;20095;-77
2022/10/05 00:09:38;;;;;;;3.33;2.25;;;;;;;7.85;77.47;98795.19;6230011;22;20393;-73
2022/10/05 00:12:18;;;;;;;3.60;2.65;;;;;;;7.76;78.06;98805.63;6228126;22;20452;-69
2022/10/05 00:14:44;;;;;;;3.00;2.75;;;;;;;7.73;78.63;98808.50;6230792;22;20015;-70
2022/10/05 00:17:15;;;;;;;4.13;2.70;;;;;;;7.74;78.93;98800.44;6230378;22;20016;-72
2022/10/05 00:19:41;;;;;;;3.60;2.95;;;;;;;7.75;78.12;98799.47;6232047;22;20023;-71
2022/10/05 00:22:10;;;;;;;4.80;3.40;;;;;;;7.80;77.89;98799.13;6231489;22;20023;-73
2022/10/05 00:24:35;;;;;;;4.38;3.13;;;;;;;7.93;77.72;98794.59;6230949;22;20054;-72
2022/10/05 00:27:11;;;;;;;5.43;3.00;;;;;;;7.83;77.98;98789.13;6230740;22;20015;-69
2022/10/05 00:29:36;;;;;;;4.20;2.80;;;;;;;7.86;77.39;98794.22;6228370;22;20019;-72
2022/10/05 00:32:00;;;;;;;3.58;2.63;;;;;;;7.78;77.95;98790.44;6203923;22;20035;-71
2022/10/05 00:34:25;;;;;;;3.33;2.63;;;;;;;7.81;77.92;98798.16;6229851;22;20019;-70
2022/10/05 00:36:50;;;;;;;3.78;2.55;;;;;;;7.81;78.35;98795.50;6232042;22;20454;-71
2022/10/05 00:39:17;;;;;;;5.70;3.15;;;;;;;7.82;78.39;98802.50;6229026;22;20116;-70
2022/10/05 00:41:53;;;;;;;8.73;2.88;;;;;;;7.87;77.98;98801.22;6203925;22;20060;-74
2022/10/05 00:45:12;;;;;;;4.07;3.47;;;;;;;8.00;77.73;98801.16;6229284;22;20023;-74
2022/10/05 00:47:39;;;;;;;3.63;1.40;;;;;;;7.97;77.62;98799.59;6059128;23;20028;-73
2022/10/05 00:50:17;;;;;;;4.85;3.05;;;;;;;7.88;77.63;98796.78;6035180;23;20101;-72
2022/10/05 00:52:56;;;;;;;2.85;2.65;;;;;;;7.78;78.20;98798.41;6058138;23;20020;-72
2022/10/05 00:55:43;;;;;;;3.17;2.88;;;;;;;7.82;78.52;98799.84;6057983;23;20895;-70
2022/10/05 00:58:26;;;;;;;3.42;2.90;;;;;;;7.86;78.35;98804.00;6107546;23;20013;-70
2022/10/05 01:00:56;;;;;;;4.15;3.20;;;;;;;7.73;78.27;98800.53;6059380;23;20103;-76
2022/10/05 01:04:00;;;;;;;4.30;3.08;;;;;;;7.80;78.52;98804.41;6108117;23;20088;-72
2022/10/05 01:06:46;;;;;;;2.80;2.50;;;;;;;7.81;78.60;98801.66;6078633;23;20445;-71
2022/10/05 01:09:22;;;;;;;2.95;2.70;;;;;;;7.84;77.94;98801.44;6086271;23;20021;-73
2022/10/05 01:12:05;;;;;;;2.88;2.53;;;;;;;7.70;78.11;98803.41;6109454;23;20024;-74
2022/10/05 01:14:37;;;;;;;3.75;2.92;;;;;;;7.62;78.80;98818.09;6109423;23;20014;-80
2022/10/05 01:17:12;;;;;;;5.25;3.13;;;;;;;7.57;79.44;98814.06;6118877;23;20444;-73
2022/10/05 01:19:58;;;;;;;3.78;2.75;;;;;;;7.56;79.41;98815.88;6108101;23;20021;-75
2022/10/05 01:22:29;;;;;;;4.28;3.00;;;;;;;7.54;79.63;98820.44;6196926;22;20034;-75
2022/10/05 01:25:15;;;;;;;7.32;3.67;;;;;;;7.48;79.73;98815.56;6228694;22;20019;-72
2022/10/05 01:28:28;;;;;;;4.63;3.03;;;;;;;7.57;80.02;98820.22;6228277;22;20018;-72
2022/10/05 01:31:27;;;;;;;6.18;3.30;;;;;;;7.50;80.83;98818.13;6105950;23;20025;-72
2022/10/05 01:34:30;;;;;;;5.68;3.40;;;;;;;7.50;80.85;98807.50;6106087;23;20024;-72
2022/10/05 01:37:13;;;;;;;4.13;2.97;;;;;;;7.50;80.47;98807.50;6091853;23;20028;-71
2022/10/05 01:40:00;;;;;;;4.25;3.28;;;;;;;7.52;79.79;98811.75;6105744;23;20400;-72
2022/10/05 01:43:03;;;;;;;4.55;3.45;;;;;;;7.64;79.23;98815.31;6107212;23;20366;-76
2022/10/05 01:45:42;;;;;;;5.75;3.67;;;;;;;7.48;79.27;98810.28;6107564;23;20021;-74
2022/10/05 01:48:23;;;;;;;4.30;3.10;;;;;;;7.32;79.72;98804.38;6107446;23;20449;-76
2022/10/05 01:51:09;;;;;;;7.35;3.40;;;;;;;7.22;81.54;98796.22;6107999;23;20100;-76
2022/10/05 01:54:08;;;;;;;5.43;3.75;;;;;;;7.29;81.64;98809.91;6089400;23;19997;-75
2022/10/05 01:56:51;;;;;;;5.65;3.53;;;;;;;7.25;81.77;98811.91;6070884;23;20017;-77
2022/10/05 01:59:49;;;;;;;6.03;3.63;;;;;;;7.37;81.21;98819.94;6082731;23;20017;-77
2022/10/05 02:02:20;;;;;;;7.40;3.50;;;;;;;7.33;80.93;98816.69;6107220;23;20495;-77
2022/10/05 02:04:51;;;;;;;7.07;3.55;;;;;;;7.33;80.66;98816.69;6057903;23;20020;-78
2022/10/05 02:07:40;;;;;;;6.45;3.47;;;;;;;7.21;81.53;98814.91;6150185;22;20023;-76
2022/10/05 02:10:18;;;;;;;4.65;3.20;;;;;;;7.23;81.96;98821.78;6212366;22;20020;-77
2022/10/05 02:12:44;;;;;;;6.10;3.25;;;;;;;7.30;81.19;98816.91;6228503;22;20012;-77
2022/10/05 02:15:13;;;;;;;4.15;3.00;;;;;;;7.25;81.32;98821.66;6202152;22;20030;-76
2022/10/05 02:17:49;;;;;;;7.25;3.45;;;;;;;7.19;81.85;98814.16;6202768;22;20057;-78
2022/10/05 02:20:29;;;;;;;6.97;3.80;;;;;;;7.19;82.11;98816.81;6202628;22;20019;-76
2022/10/05 02:23:02;;;;;;;3.67;2.80;;;;;;;7.15;81.97;98823.28;6201829;22;20513;-77
2022/10/05 02:25:35;;;;;;;5.57;3.35;;;;;;;7.12;82.57;98824.34;6202905;22;20451;-79
2022/10/05 02:28:03;;;;;;;3.95;2.83;;;;;;;7.16;82.96;98836.44;6229965;22;20102;-79
2022/10/05 02:30:32;;;;;;;4.63;3.17;;;;;;;7.12;83.30;98821.69;6229070;22;20402;-77
2022/10/05 02:33:06;;;;;;;4.72;3.33;;;;;;;7.20;83.39;98824.66;6177759;22;20099;-78
2022/10/05 02:35:30;;;;;;;6.60;3.38;;;;;;;7.31;82.27;98826.56;6202518;22;20026;-74
2022/10/05 02:38:25;;;;;;;3.40;3.03;;;;;;;7.31;82.22;98833.66;6229752;22;20090;-77
2022/10/05 02:40:56;;;;;;;5.70;3.03;;;;;;;7.18;82.69;98818.63;6190876;22;20011;-75
2022/10/05 02:43:43;;;;;;;4.32;3.40;;;;;;;7.26;83.51;98828.66;6201270;22;20099;-74
2022/10/05 02:46:35;;;;;;;3.13;2.40;;;;;;;7.28;83.50;98832.06;6226642;22;20090;-78
2022/10/05 02:49:19;;;;;;;4.13;3.10;;;;;;;7.31;83.82;98831.00;6228120;22;20066;-77
2022/10/05 02:51:55;;;;;;;4.85;3.83;;;;;;;7.28;83.96;98829.41;6228312;22;20020;-77
2022/10/05 02:54:47;;;;;;;4.95;3.80;;;;;;;7.28;83.64;98822.31;6228975;22;20019;-76
2022/10/05 02:57:27;;;;;;;5.65;3.40;;;;;;;7.29;83.94;98831.13;6202611;22;20099;-80
2022/10/05 03:00:04;;;;;;;4.57;3.40;;;;;;;7.34;84.02;98828.97;6228334;22;20012;-77
2022/10/05 03:02:30;;;;;;;4.78;3.38;;;;;;;7.36;84.12;98820.91;6204306;22;20019;-76
2022/10/05 03:05:13;;;;;;;2.88;2.67;;;;;;;7.39;83.77;98828.66;6229891;22;20111;-76
2022/10/05 03:07:42;;;;;;;6.55;3.75;;;;;;;7.40;83.70;98827.69;6204503;22;20027;-78
2022/10/05 03:10:19;;;;;;;3.22;2.58;;;;;;;7.43;83.49;98830.13;6231975;22;20012;-76
2022/10/05 03:12:54;;;;;;;5.35;3.38;;;;;;;7.42;83.21;98837.25;6180691;22;20410;-78
2022/10/05 03:15:21;;;;;;;3.15;2.72;;;;;;;7.41;83.01;98834.69;6204559;22;20022;-80
2022/10/05 03:18:17;;;;;;;4.10;3.47;;;;;;;7.40;83.29;98835.66;6232321;22;20011;-81
2022/10/05 03:21:11;;;;;;;5.93;3.10;;;;;;;7.39;83.58;98840.09;6239864;22;20022;-79
2022/10/05 03:24:26;;;;;;;3.57;2.87;;;;;;;7.44;82.96;98834.50;6232272;22;20042;-80
2022/10/05 03:27:23;;;;;;;5.18;3.50;;;;;;;7.34;82.92;98838.72;6121242;23;20020;-80
2022/10/05 03:30:03;;;;;;;6.32;3.03;;;;;;;7.29;83.32;98847.03;6061715;23;20028;-78
2022/10/05 03:33:02;;;;;;;4.60;3.15;;;;;;;7.35;83.86;98856.34;6088593;23;20017;-81
2022/10/05 03:35:52;;;;;;;4.00;3.28;;;;;;;7.32;83.36;98849.47;6089865;23;20534;-79
2022/10/05 03:38:33;;;;;;;3.28;2.97;;;;;;;7.29;83.55;98849.69;6065132;23;20020;-82
2022/10/05 03:41:10;;;;;;;4.25;3.28;;;;;;;7.31;83.51;98855.72;6099648;23;20017;-79
2022/10/05 03:43:51;;;;;;;8.07;3.35;;;;;;;7.34;83.87;98847.53;6138267;23;20024;-76
2022/10/05 03:46:46;;;;;;;4.82;2.88;;;;;;;7.39;84.06;98853.38;6099368;23;20071;-77
2022/10/05 03:49:26;;;;;;;4.40;3.22;;;;;;;7.41;83.89;98856.75;6140456;23;20021;-79
2022/10/05 03:52:00;;;;;;;5.80;3.15;;;;;;;7.40;83.92;98855.06;6119145;23;19997;-79
2022/10/05 03:54:32;;;;;;;5.78;3.55;;;;;;;7.35;83.80;98851.88;6109063;23;20171;-79
2022/10/05 03:57:20;;;;;;;3.30;2.95;;;;;;;7.46;83.10;98844.00;6070168;23;20028;-79
2022/10/05 04:00:05;;;;;;;5.22;3.67;;;;;;;7.45;83.15;98855.56;6090957;23;20012;-79
2022/10/05 04:02:42;;;;;;;5.38;2.97;;;;;;;7.31;82.83;98853.06;6145465;22;20095;-78
2022/10/05 04:05:08;;;;;;;3.42;3.13;;;;;;;7.35;83.01;98851.88;6238538;22;20019;-82
2022/10/05 04:07:45;;;;;;;5.00;3.10;;;;;;;7.37;83.22;98860.56;6204142;22;20073;-81
2022/10/05 04:10:24;;;;;;;4.75;3.40;;;;;;;7.29;83.45;98854.97;6203638;22;20031;-76
2022/10/05 04:12:57;;;;;;;3.53;3.15;;;;;;;7.31;83.71;98847.78;6229050;22;20012;-75
2022/10/05 04:15:41;;;;;;;4.38;3.33;;;;;;;7.40;83.29;98860.38;6229279;22;20435;-76
2022/10/05 04:18:18;;;;;;;5.00;3.25;;;;;;;7.39;83.10;98856.00;6229648;22;20435;-77
2022/10/05 04:20:47;;;;;;;4.43;3.47;;;;;;;7.49;81.94;98862.34;6229341;22;20019;-77
2022/10/05 04:23:17;;;;;;;5.22;3.20;;;;;;;7.46;81.91;98857.25;6229436;22;20019;-76
2022/10/05 04:26:01;;;;;;;4.50;3.25;;;;;;;7.42;82.19;98854.97;6229208;22;20407;-76
2022/10/05 04:28:34;;;;;;;4.93;3.90;;;;;;;7.33;82.73;98864.41;6203328;22;20347;-76
2022/10/05 04:31:04;;;;;;;3.97;2.88;;;;;;;7.29;82.97;98862.94;6204223;22;20027;-75
2022/10/05 04:33:31;;;;;;;5.82;3.38;;;;;;;7.33;83.02;98866.22;6203318;22;20030;-76
2022/10/05 04:36:07;;;;;;;6.50;3.22;;;;;;;7.41;82.61;98862.06;6229385;22;20015;-77
2022/10/05 04:38:32;;;;;;;4.78;3.25;;;;;;;7.31;82.66;98865.47;6203506;22;20012;-76
2022/10/05 04:41:09;;;;;;;4.70;3.30;;;;;;;7.33;82.57;98866.22;6229665;22;20517;-76
2022/10/05 04:44:02;;;;;;;3.92;3.15;;;;;;;7.36;82.21;98866.84;6229041;22;20011;-76
2022/10/05 04:46:55;;;;;;;5.65;3.67;;;;;;;7.28;83.09;98862.09;6203462;22;20007;-75
2022/10/05 04:49:41;;;;;;;4.75;3.83;;;;;;;7.33;83.82;98872.38;6180263;22;20015;-77
2022/10/05 04:53:00;;;;;;;4.05;3.05;;;;;;;7.41;83.79;98867.38;6230291;22;20466;-80
2022/10/05 04:55:45;;;;;;;3.60;2.88;;;;;;;7.47;83.29;98874.88;6059960;23;20356;-78
2022/10/05 04:58:38;;;;;;;5.03;3.70;;;;;;;7.50;82.98;98882.63;6087867;23;20013;-80
2022/10/05 05:01:42;;;;;;;4.55;3.63;;;;;;;7.52;82.88;98878.06;6068181;23;20156;-79
2022/10/05 05:04:18;;;;;;;4.68;3.25;;;;;;;7.45;82.57;98871.47;6063495;23;20456;-78
2022/10/05 05:07:06;;;;;;;2.95;2.67;;;;;;;7.54;82.58;98881.47;6058490;23;20055;-80
2022/10/05 05:10:00;;;;;;;3.92;3.17;;;;;;;7.53;82.58;98876.25;6083133;23;20033;-79
2022/10/05 05:12:54;;;;;;;3.05;2.50;;;;;;;7.62;82.99;98875.59;6034419;23;20029;-78
2022/10/05 05:15:37;;;;;;;3.47;2.70;;;;;;;7.71;82.94;98879.38;6071548;23;20017;-78
2022/10/05 05:18:34;;;;;;;4.35;3.05;;;;;;;7.80;82.58;98876.91;6058364;23;20024;-78
2022/10/05 05:21:10;;;;;;;3.45;2.92;;;;;;;7.78;82.38;98875.34;6076212;23;20023;-75
2022/10/05 05:23:43;;;;;;;3.83;3.08;;;;;;;7.81;82.19;98883.91;6107832;23;20104;-77
2022/10/05 05:26:19;;;;;;;3.13;2.55;;;;;;;7.86;81.95;98871.19;6058372;23;20021;-77
2022/10/05 05:28:48;;;;;;;4.47;3.03;;;;;;;7.96;81.78;98884.63;6149877;22;20352;-79
2022/10/05 05:31:16;;;;;;;2.63;2.05;;;;;;;7.98;81.73;98869.44;6204625;22;20336;-79
2022/10/05 05:34:03;;;;;;;4.22;2.63;;;;;;;8.04;81.70;98871.63;6204556;22;20355;-74
2022/10/05 05:36:53;;;;;;;2.78;2.33;;;;;;;8.04;81.54;98863.66;6204016;22;20026;-75
2022/10/05 05:39:35;;;;;;;3.17;2.53;;;;;;;8.10;81.27;98873.00;6229770;22;20039;-75
2022/10/05 05:42:28;;;;;;;4.85;2.50;;;;;;;8.11;81.10;98867.59;6203230;22;20549;-78
2022/10/05 05:44:58;;;;;;;5.03;2.58;;;;;;;8.02;80.76;98879.69;6229490;22;20019;-79
2022/10/05 05:47:36;;;;;;;2.72;1.77;;;;;;;8.03;81.12;98891.16;6203492;22;20012;-76
2022/10/05 05:50:40;;;;;;;3.20;2.28;;;;;;;8.09;81.03;98890.72;6214431;22;20094;-76
2022/10/05 05:53:13;;;;;;;3.45;3.03;;;;;;;8.09;81.30;98888.09;6228864;22;20346;-78
2022/10/05 05:55:43;;;;;;;4.05;2.35;;;;;;;8.13;81.49;98891.34;6228513;22;20465;-77
2022/10/05 05:58:28;;;;;;;4.22;2.30;;;;;;;8.19;80.97;98897.06;6203124;22;20389;-75
2022/10/05 06:01:02;;;;;;;3.45;2.33;;;;;;;8.24;80.67;98896.72;6177922;22;20134;-76
2022/10/05 06:03:33;;;;;;;3.13;2.28;;;;;;;8.31;80.58;98895.31;6203946;22;20467;-75
2022/10/05 06:06:05;;;;;;;3.63;2.85;;;;;;;8.36;79.92;98894.03;6229415;22;20019;-78
2022/10/05 06:08:41;;;;;;;4.22;2.30;;;;;;;8.41;79.13;98895.50;6204551;22;20014;-77
2022/10/05 06:11:25;;;;;;;4.55;2.58;;;;;;;8.41;79.04;98899.00;6207081;22;20023;-78
2022/10/05 06:13:53;;;;;;;5.13;2.97;;;;;;;8.47;78.96;98903.00;6233431;22;20050;-78
2022/10/05 06:16:24;;;;;;;5.10;2.40;;;;;;;8.60;78.57;98906.44;6204417;22;20016;-77
2022/10/05 06:19:04;;;;;;;7.95;3.58;;;;;;;8.74;78.13;98904.44;6202707;22;20112;-75
2022/10/05 06:21:37;;;;;;;5.05;2.70;;;;;;;8.79;77.54;98904.09;6201805;22;20390;-76
2022/10/05 06:24:36;;;;;;;7.82;2.90;;;;;;;8.90;76.94;98908.59;6228605;22;20393;-78
2022/10/05 06:27:14;;;;;;;4.05;2.22;;;;;;;8.94;76.52;98920.69;6228378;22;20008;-76
2022/10/05 06:30:03;;;;;;;5.00;2.42;;;;;;;9.02;76.36;98929.78;6227785;22;20015;-75
2022/10/05 06:32:34;;;;;;;3.47;2.10;;;;;;;9.03;76.29;98918.16;6227017;22;20026;-75
2022/10/05 06:35:07;;;;;;;1.95;1.55;;;;;;;9.10;76.50;98929.19;6229632;22;20450;-79
2022/10/05 06:37:47;;;;;;;3.40;1.70;;;;;;;9.06;75.12;98919.75;6204368;22;20548;-77
2022/10/05 06:40:35;;;;;;;3.10;1.95;;;;;;;9.09;75.44;98932.81;6204856;22;20057;-78
2022/10/05 06:43:34;;;;;;;2.95;2.00;;;;;;;9.12;75.81;98929.94;6203816;22;20445;-71
2022/10/05 06:46:30;;;;;;;1.85;1.73;;;;;;;9.16;76.16;98926.03;6168154;23;20012;-76
2022/10/05 06:49:22;;;;;;;4.22;2.33;;;;;;;9.10;76.36;98930.03;6146766;23;20016;-80
2022/10/05 06:52:51;;;;;;;2.13;1.92;;;;;;;9.21;76.63;98939.00;6066314;23;20021;-76
2022/10/05 06:55:34;;;;;;;6.82;1.65;;;;;;;9.14;76.43;98951.94;6083934;23;20013;-76
2022/10/05 06:58:21;;;;;;;1.90;1.77;;;;;;;9.05;76.29;98945.47;6059746;23;20064;-77
2022/10/05 07:00:55;;;;;;;1.92;1.80;;;;;;;9.03;76.41;98946.56;6109537;23;20021;-78
2022/10/05 07:03:40;;;;;;;2.38;2.17;;;;;;;9.01;76.66;98945.84;6083876;23;20091;-78
2022/10/05 07:06:13;;;;;;;3.33;1.88;;;;;;;9.04;75.99;98956.22;6069830;23;20021;-79
2022/10/05 07:08:46;;;;;;;5.07;2.50;;;;;;;9.06;75.84;98951.66;6113624;23;20029;-79
2022/10/05 07:11:28;;;;;;;5.18;2.30;;;;;;;9.07;76.39;98962.16;6084117;23;20044;-80
2022/10/05 07:14:21;;;;;;;4.38;2.40;;;;;;;9.14;76.64;98964.38;6108872;23;20028;-78
2022/10/05 07:17:16;;;;;;;2.10;1.90;;;;;;;9.17;76.19;98958.81;6109094;23;20017;-78
2022/10/05 07:20:10;;;;;;;1.85;1.63;;;;;;;9.22;76.30;98968.13;6108449;23;20017;-78
2022/10/05 07:22:41;;;;;;;1.90;1.70;;;;;;;9.18;76.49;98965.81;5997417;23;20026;-80
2022/10/05 07:25:22;;;;;;;3.30;2.10;;;;;;;9.18;75.92;98973.78;5998514;23;20027;-79
2022/10/05 07:27:57;;;;;;;6.13;3.03;;;;;;;9.15;76.41;98971.38;6019321;23;20153;-77
2022/10/05 07:30:23;;;;;;;3.80;2.58;;;;;;;9.15;76.67;98966.03;6059892;23;20121;-76
2022/10/05 07:33:08;;;;;;;2.13;1.88;;;;;;;9.27;76.30;98971.28;6083677;23;20017;-77
2022/10/05 07:38:56;;;;;;;2.90;1.77;;;;;;;9.31;76.01;98982.53;6083779;23;20010;-76
2022/10/05 07:41:34;;;;;;;2.25;1.55;;;;;;;9.24;75.98;98991.97;6085327;23;20024;-78
2022/10/05 07:44:11;;;;;;;3.97;2.03;;;;;;;9.22;76.49;98988.56;6065279;23;20017;-79
2022/10/05 07:46:55;;;;;;;3.67;2.10;;;;;;;9.25;76.86;98997.16;6105281;23;20017;-79
2022/10/05 07:50:01;;;;;;;2.50;2.15;;;;;;;9.30;77.07;98992.31;6070761;23;20009;-78
2022/10/05 07:52:38;;;;;;;3.80;2.33;;;;;;;9.30;77.20;98994.13;6091989;23;20065;-79
2022/10/05 07:55:19;;;;;;;2.88;2.20;;;;;;;9.34;77.23;98998.28;6094502;23;20080;-79
2022/10/05 07:58:30;;;;;;;3.90;3.00;;;;;;;9.34;77.62;99003.59;6060238;23;20041;-78
2022/10/05 08:01:04;;;;;;;3.67;3.00;;;;;;;9.23;76.90;99009.72;6208261;22;20022;-78
2022/10/05 08:03:38;;;;;;;3.83;2.38;;;;;;;9.26;77.42;99013.94;6205292;22;20077;-78
2022/10/05 08:06:06;;;;;;;3.90;2.55;;;;;;;9.24;76.99;99013.25;6180319;22;20012;-78
2022/10/05 08:08:46;;;;;;;2.78;2.58;;;;;;;9.33;77.24;99007.22;6179550;22;20065;-79
2022/10/05 08:11:18;;;;;;;5.47;3.00;;;;;;;9.30;77.79;99010.94;6241829;22;20081;-75
2022/10/05 08:13:55;;;;;;;4.10;2.95;;;;;;;9.40;77.50;99019.06;6230459;22;20011;-78
2022/10/05 08:16:25;;;;;;;4.32;3.45;;;;;;;9.24;77.72;99015.91;6204458;22;20015;-75
2022/10/05 08:18:59;;;;;;;3.20;2.38;;;;;;;9.25;78.35;99025.56;6230861;22;20015;-75
2022/10/05 08:21:37;;;;;;;6.07;2.72;;;;;;;9.29;78.71;99033.19;6240067;22;20443;-76
2022/10/05 08:24:19;;;;;;;3.50;2.90;;;;;;;9.32;79.15;99030.31;6245146;22;20346;-76
2022/10/05 08:26:49;;;;;;;5.53;3.17;;;;;;;9.34;79.23;99030.19;6230634;22;20018;-78
2022/10/05 08:29:25;;;;;;;4.03;2.25;;;;;;;9.40;79.67;99027.91;6207630;22;20022;-78
2022/10/05 08:31:55;;;;;;;4.10;2.90;;;;;;;9.42;79.09;99030.44;6183637;22;20034;-80
2022/10/05 08:34:53;;;;;;;4.47;2.55;;;;;;;9.61;78.90;99028.06;6234631;22;20095;-79
2022/10/05 08:37:31;;;;;;;4.53;2.83;;;;;;;9.73;78.80;99027.09;6207397;22;20446;-80
2022/10/05 08:40:14;;;;;;;4.25;2.15;;;;;;;9.84;77.65;99031.59;6208342;22;20038;-80
2022/10/05 08:42:42;;;;;;;5.22;2.60;;;;;;;9.86;77.58;99034.13;6237534;22;20037;-79
2022/10/05 08:45:44;;;;;;;2.58;2.17;;;;;;;10.08;77.36;99032.34;6237800;22;20050;-79
2022/10/05 08:48:46;;;;;;;5.70;2.88;;;;;;;10.31;77.87;99035.00;6209009;22;20081;-77
2022/10/05 08:51:11;;;;;;;4.00;2.45;;;;;;;10.41;76.35;99034.16;6244386;22;20025;-79
2022/10/05 08:54:16;;;;;;;4.10;2.17;;;;;;;10.61;74.84;99040.53;6230993;22;20102;-80
2022/10/05 08:56:49;;;;;;;3.33;2.23;;;;;;;10.70;74.17;99033.63;6219937;22;20016;-78
2022/10/05 08:59:56;;;;;;;2.88;2.08;;;;;;;11.04;73.94;99053.03;6222106;22;20022;-78
2022/10/05 09:02:58;;;;;;;5.53;2.85;;;;;;;11.27;73.55;99047.47;6186625;22;20129;-79
2022/10/05 09:05:33;;;;;;;4.00;2.17;;;;;;;11.41;72.93;99056.13;6238045;22;20011;-77
2022/10/05 09:08:10;;;;;;;3.45;2.15;;;;;;;11.43;72.18;99048.84;6237413;22;20044;-78
2022/10/05 09:11:02;;;;;;;5.93;2.20;;;;;;;11.56;72.09;99049.50;6247895;22;20014;-79
2022/10/05 09:13:50;;;;;;;2.85;1.98;;;;;;;11.46;70.92;99051.25;6246582;22;20397;-78
2022/10/05 09:16:35;;;;;;;5.55;2.67;;;;;;;11.47;70.56;99051.13;6123506;23;20036;-77
2022/10/05 09:19:11;;;;;;;3.08;1.83;;;;;;;11.27;69.96;99062.66;6098407;23;20029;-76
2022/10/05 09:22:03;;;;;;;2.00;1.85;;;;;;;11.25;71.58;99057.44;6102312;23;20032;-78
2022/10/05 09:24:52;;;;;;;2.63;1.90;;;;;;;11.25;72.42;99075.25;6011117;23;20071;-78
2022/10/05 09:27:23;;;;;;;2.47;1.70;;;;;;;11.11;72.48;99067.53;6037412;23;20098;-76
2022/10/05 09:30:37;;;;;;;3.22;1.92;;;;;;;11.25;72.04;99076.09;6036105;23;20049;-77
2022/10/05 09:33:17;;;;;;;3.38;2.63;;;;;;;11.08;70.60;99078.47;5980469;23;20034;-79
2022/10/05 09:36:11;;;;;;;4.30;2.00;;;;;;;11.06;70.05;99077.75;5952964;23;20049;-78
2022/10/05 09:38:44;;;;;;;4.60;2.55;;;;;;;11.10;71.52;99074.69;5928948;23;20011;-76
2022/10/05 09:41:43;;;;;;;3.00;1.85;;;;;;;11.37;71.49;99076.06;5959915;23;20103;-77
2022/10/05 09:44:33;;;;;;;4.50;2.25;;;;;;;11.87;71.15;99077.97;5938813;23;20034;-81
2022/10/05 09:47:19;;;;;;;6.53;2.40;;;;;;;13.72;68.45;99076.47;5937157;23;20015;-77
2022/10/05 09:50:16;;;;;;;3.03;2.40;;;;;;;15.84;56.97;99067.25;5937954;23;20023;-77
2022/10/05 09:53:04;;;;;;;1.92;1.13;;;;;;;16.32;52.46;99072.09;5942555;23;20438;-78
2022/10/05 09:55:38;;;;;;;1.42;1.33;;;;;;;15.76;53.03;99071.72;6053008;23;20014;-77
2022/10/05 09:58:13;;;;;;;5.53;1.60;;;;;;;15.21;55.71;99077.25;6053482;23;20033;-78
2022/10/05 10:00:44;;;;;;;4.07;1.65;;;;;;;14.41;56.78;99080.69;6036199;23;20021;-79
2022/10/05 10:03:41;;;;;;;1.63;1.42;;;;;;;13.74;58.04;99095.09;6032958;23;20096;-78
2022/10/05 10:06:20;;;;;;;1.35;1.20;;;;;;;13.01;61.22;99099.09;6055765;23;20092;-74
2022/10/05 10:08:58;;;;;;;1.52;1.08;;;;;;;12.64;62.98;99105.06;6032362;23;20014;-73
2022/10/05 10:11:53;;;;;;;2.00;1.42;;;;;;;12.31;63.65;99098.19;6141003;23;20027;-73
2022/10/05 10:14:30;;;;;;;;;;;;;;;12.31;64.21;99105.34;6167934;23;20024;-74
2022/10/05 10:17:05;;;;;;;0.95;0.88;;;;;;;12.01;64.10;99106.19;6118690;23;19973;-74
2022/10/05 10:19:52;;;;;;;0.90;0.90;;;;;;;12.05;65.17;99112.97;6143768;23;20024;-72
2022/10/05 10:22:44;;;;;;;2.00;1.40;;;;;;;12.15;64.72;99113.00;6143811;23;20832;-73
2022/10/05 10:25:20;;;;;;;2.88;1.50;;;;;;;12.62;65.34;99107.03;6142737;23;20452;-71
2022/10/05 10:28:25;;;;;;;2.60;1.42;;;;;;;13.15;63.27;99105.91;6142197;23;20012;-72
2022/10/05 10:30:55;;;;;;;6.90;2.65;;;;;;;13.29;61.75;99106.38;6229609;22;20015;-69
2022/10/05 10:33:45;;;;;;;1.77;1.52;;;;;;;13.48;60.08;99110.03;6228724;22;20358;-75
2022/10/05 10:36:26;;;;;;;1.10;1.00;;;;;;;13.25;60.25;99118.34;6227635;22;20022;-71
2022/10/05 10:39:17;;;;;;;1.90;1.73;;;;;;;13.06;61.71;99123.63;6229050;22;20008;-72
2022/10/05 10:42:01;;;;;;;1.48;1.30;;;;;;;12.66;61.33;99121.81;6223622;22;20016;-78
2022/10/05 10:44:47;;;;;;;1.60;1.38;;;;;;;12.35;61.68;99121.00;6232358;22;20016;-75
2022/10/05 10:47:11;;;;;;;1.95;1.35;;;;;;;12.14;62.91;99128.19;6235279;22;20350;-74
2022/10/05 10:50:13;;;;;;;2.53;1.60;;;;;;;12.31;62.95;99124.06;6230032;22;20019;-71
2022/10/05 10:53:06;;;;;;;2.50;1.60;;;;;;;12.55;64.45;99131.75;6229176;22;20153;-73
2022/10/05 10:56:12;;;;;;;5.75;2.08;;;;;;;12.54;63.30;99122.03;6227852;22;20442;-69
2022/10/05 10:59:01;;;;;;;5.50;1.98;;;;;;;12.36;63.10;99124.50;6229959;22;20015;-71
2022/10/05 11:01:26;;;;;;;1.20;1.17;;;;;;;12.22;63.01;99122.19;6228336;22;20043;-71
2022/10/05 11:03:54;;;;;;;1.63;1.20;;;;;;;12.24;61.62;99123.75;6229271;22;20016;-71
2022/10/05 11:06:45;;;;;;;0.75;0.75;;;;;;;12.28;60.82;99135.88;6229040;22;20031;-72
2022/10/05 11:09:47;;;;;;;1.15;0.80;;;;;;;12.38;61.37;99140.44;6226718;22;20798;-72
2022/10/05 11:12:50;;;;;;;0.70;0.70;;;;;;;12.46;61.05;99138.78;6228009;22;20100;-72
2022/10/05 11:15:34;;;;;;;1.52;1.17;;;;;;;12.46;61.64;99151.28;6228165;22;20022;-72
2022/10/05 11:18:05;;;;;;;1.40;1.10;;;;;;;12.31;61.82;99158.81;6227352;22;20076;-72
2022/10/05 11:20:50;;;;;;;0.90;0.85;;;;;;;12.13;63.04;99155.91;6225924;22;20019;-72
2022/10/05 11:23:37;;;;;;;1.42;1.25;;;;;;;12.11;61.67;99163.19;6228035;22;20076;-71
2022/10/05 11:26:24;;;;;;;11.60;2.20;;;;;;;12.04;63.25;99169.19;6229704;22;20026;-71
2022/10/05 11:28:51;;;;;;;2.63;1.15;;;;;;;11.79;62.53;99179.28;6230734;22;20020;-71
2022/10/05 11:31:29;;;;;;;0.75;0.75;;;;;;;11.75;63.74;99185.84;6228680;22;20312;-71
2022/10/05 11:34:32;;;;;;;2.13;1.42;;;;;;;11.69;64.88;99193.50;6241857;22;20621;-71
2022/10/05 11:37:30;;;;;;;1.15;1.05;;;;;;;11.66;65.13;99189.25;6233180;22;20103;-71
2022/10/05 11:40:20;;;;;;;2.70;1.58;;;;;;;11.73;65.09;99185.13;6237050;22;20007;-71
2022/10/05 11:43:12;;;;;;;1.75;1.30;;;;;;;11.63;65.32;99189.50;6228898;22;20019;-71
2022/10/05 11:45:48;;;;;;;2.55;1.73;;;;;;;11.40;66.13;99191.38;6230914;22;20020;-72
2022/10/05 11:48:45;;;;;;;3.95;2.22;;;;;;;11.29;67.07;99191.41;6229218;22;20390;-71
2022/10/05 11:51:40;;;;;;;1.38;1.27;;;;;;;11.21;67.74;99201.88;6231817;22;20041;-73
2022/10/05 11:54:07;;;;;;;;;;;;;;;11.22;67.25;99204.44;6230464;22;20007;-71
2022/10/05 11:56:42;;;;;;;2.88;1.58;;;;;;;11.11;67.60;99204.44;6214219;22;19918;-72
2022/10/05 11:59:25;;;;;;;6.60;2.35;;;;;;;11.04;68.07;99213.94;6230404;22;20435;-71
2022/10/05 12:02:12;;;;;;;1.40;1.30;;;;;;;11.03;68.15;99216.72;6230703;22;20011;-71
2022/10/05 12:05:07;;;;;;;1.88;1.60;;;;;;;10.97;68.78;99211.84;6230602;22;20397;-71
2022/10/05 12:07:41;;;;;;;1.50;1.40;;;;;;;10.88;68.23;99214.28;6228282;22;20039;-73
2022/10/05 12:10:22;;;;;;;4.43;1.77;;;;;;;10.87;68.40;99207.25;6242502;22;20019;-75
2022/10/05 12:13:14;;;;;;;3.35;1.95;;;;;;;11.01;68.85;99219.50;6241975;22;20389;-72
2022/10/05 12:16:03;;;;;;;3.40;1.92;;;;;;;11.15;67.93;99224.59;6242817;22;20518;-74
2022/10/05 12:18:31;;;;;;;2.17;1.75;;;;;;;11.16;67.82;99223.63;6237630;22;20020;-70
2022/10/05 12:21:14;;;;;;;2.78;1.88;;;;;;;11.19;68.18;99228.69;6231652;22;20012;-71
2022/10/05 12:23:56;;;;;;;4.07;2.25;;;;;;;11.02;67.78;99231.03;6231131;22;20023;-70
2022/10/05 12:26:24;;;;;;;2.22;1.27;;;;;;;10.79;68.39;99230.19;6234023;22;20400;-71
2022/10/05 12:28:54;;;;;;;2.60;1.40;;;;;;;10.63;69.10;99238.50;6229554;22;20027;-70
2022/10/05 12:31:38;;;;;;;4.72;1.70;;;;;;;10.51;69.93;99236.81;6230002;22;20093;-71
2022/10/05 12:34:17;;;;;;;8.15;1.77;;;;;;;10.57;70.39;99235.50;6230599;22;20027;-72
2022/10/05 12:36:49;;;;;;;3.05;1.45;;;;;;;10.55;71.05;99249.78;6228641;22;20015;-71
2022/10/05 12:39:22;;;;;;;4.10;1.67;;;;;;;10.67;71.22;99234.66;6203244;22;20019;-71
2022/10/05 12:42:14;;;;;;;4.57;1.55;;;;;;;10.83;70.94;99247.63;6230180;22;20134;-72
2022/10/05 12:44:58;;;;;;;12.20;3.08;;;;;;;10.71;70.86;99237.94;6177305;22;20023;-70
2022/10/05 12:47:26;;;;;;;5.38;2.65;;;;;;;10.70;70.79;99246.91;6230093;22;20061;-70
2022/10/05 12:50:09;;;;;;;2.47;1.55;;;;;;;10.57;70.99;99251.47;6229589;22;20146;-68
2022/10/05 12:52:46;;;;;;;1.80;1.10;;;;;;;10.36;70.92;99244.19;6228412;22;20046;-72